Time;durP1;ratioP1;P1;durP2;ratioP2;P2;SDS_P1;SDS_P2;PMS_P1;PMS_P2;Temp;Humidity;BMP_temperature;BMP_pressure;BME280_temperature;BME280_humidity;BME280_pressure;Samples;Min_cycle;Max_cycle;Signal;HPM_P1;HPM_P2
2022/03/29 00:02:00;;;;;;;22.85;10.70;;;;;;;;;;5039678;28;20084;-82
2022/03/29 00:04:25;;;;;;;19.65;10.52;;;;;;;;;;5041413;28;20481;-82
2022/03/29 00:06:51;;;;;;;19.50;9.73;;;;;;;;;;5040166;28;20033;-83
2022/03/29 00:09:16;;;;;;;21.77;12.00;;;;;;;;;;5040400;28;20026;-79
2022/03/29 00:11:42;;;;;;;22.65;11.90;;;;;;;;;;5039737;28;20018;-83
2022/03/29 00:14:07;;;;;;;20.95;10.63;;;;;;;;;;5039058;28;20032;-82
2022/03/29 00:16:33;;;;;;;26.35;12.93;;;;;;;;;;5039160;28;20025;-82
2022/03/29 00:18:58;;;;;;;23.38;12.70;;;;;;;;;;5039260;28;20021;-80
2022/03/29 00:21:24;;;;;;;21.83;11.00;;;;;;;;;;5039208;28;20022;-81
2022/03/29 00:23:49;;;;;;;25.02;12.73;;;;;;;;;;5039993;28;20025;-82
2022/03/29 00:26:16;;;;;;;23.25;12.32;;;;;;;;;;5038158;28;20583;-81
2022/03/29 00:28:41;;;;;;;27.70;13.30;;;;;;;;;;5037203;28;20021;-81
2022/03/29 00:31:07;;;;;;;24.30;12.65;;;;;;;;;;5037182;28;20013;-81
2022/03/29 00:33:32;;;;;;;22.70;12.77;;;;;;;;;;5036819;28;20017;-83
2022/03/29 00:35:57;;;;;;;22.88;12.15;;;;;;;;;;5042076;28;20022;-81
2022/03/29 00:38:25;;;;;;;20.65;11.90;;;;;;;;;;5042006;28;20029;-81
2022/03/29 00:40:50;;;;;;;23.55;11.70;;;;;;;;;;5037784;28;20022;-82
2022/03/29 00:43:16;;;;;;;22.98;11.57;;;;;;;;;;5038667;28;20025;-79
2022/03/29 00:45:41;;;;;;;25.60;12.18;;;;;;;;;;5035036;28;20183;-82
2022/03/29 00:48:08;;;;;;;21.83;11.70;;;;;;;;;;5035551;28;20464;-81
2022/03/29 00:50:35;;;;;;;23.52;13.05;;;;;;;;;;5036121;28;20024;-83
2022/03/29 00:53:00;;;;;;;23.40;12.45;;;;;;;;;;5035896;28;20029;-81
2022/03/29 00:55:25;;;;;;;19.92;11.40;;;;;;;;;;5035291;28;20009;-83
2022/03/29 00:57:51;;;;;;;22.17;11.23;;;;;;;;;;5034654;28;20017;-82
2022/03/29 01:00:16;;;;;;;24.92;12.07;;;;;;;;;;5034503;28;20362;-80
2022/03/29 01:02:42;;;;;;;27.05;12.57;;;;;;;;;;5034276;28;20080;-81
2022/03/29 01:05:07;;;;;;;27.50;12.55;;;;;;;;;;5034098;28;20397;-80
2022/03/29 01:07:33;;;;;;;23.52;11.50;;;;;;;;;;5032883;28;20026;-79
2022/03/29 01:10:00;;;;;;;21.77;11.43;;;;;;;;;;5034500;28;20074;-80
2022/03/29 01:12:28;;;;;;;27.20;12.63;;;;;;;;;;5033736;28;20014;-81
2022/03/29 01:14:53;;;;;;;22.65;11.77;;;;;;;;;;5033821;28;20018;-80
2022/03/29 01:20:05;;;;;;;25.00;12.25;;;;;;;;;;5033399;28;20109;-80
2022/03/29 01:22:32;;;;;;;21.95;11.57;;;;;;;;;;5033318;28;20088;-80
2022/03/29 01:24:57;;;;;;;22.05;12.05;;;;;;;;;;5033880;28;20032;-80
2022/03/29 01:27:23;;;;;;;23.05;12.10;;;;;;;;;;5033238;28;20488;-83
2022/03/29 01:29:49;;;;;;;24.17;12.60;;;;;;;;;;5032952;28;20021;-83
2022/03/29 01:32:14;;;;;;;21.48;11.50;;;;;;;;;;5031383;28;20064;-81
2022/03/29 01:34:41;;;;;;;21.73;11.38;;;;;;;;;;5034031;28;20041;-81
2022/03/29 01:37:06;;;;;;;19.70;11.20;;;;;;;;;;5033011;28;20116;-80
2022/03/29 01:39:32;;;;;;;20.40;11.98;;;;;;;;;;5032810;28;20504;-81
2022/03/29 01:41:57;;;;;;;20.88;11.82;;;;;;;;;;5032591;28;20022;-80
2022/03/29 01:44:25;;;;;;;23.90;11.55;;;;;;;;;;5032778;28;20461;-82
2022/03/29 01:46:50;;;;;;;21.75;12.45;;;;;;;;;;5032750;28;20021;-82
2022/03/29 01:49:16;;;;;;;22.02;11.68;;;;;;;;;;5032575;28;20381;-79
2022/03/29 01:51:41;;;;;;;22.92;12.40;;;;;;;;;;5032524;28;20013;-79
2022/03/29 01:54:06;;;;;;;29.20;12.25;;;;;;;;;;5032544;28;20102;-80
2022/03/29 01:56:32;;;;;;;25.38;13.20;;;;;;;;;;5032598;28;20066;-81
2022/03/29 01:58:58;;;;;;;22.17;12.45;;;;;;;;;;5032689;28;20101;-80
2022/03/29 02:01:24;;;;;;;23.88;12.90;;;;;;;;;;5031162;28;20523;-80
2022/03/29 02:03:49;;;;;;;25.77;12.68;;;;;;;;;;5032069;28;20385;-80
2022/03/29 02:06:14;;;;;;;23.45;12.18;;;;;;;;;;5031021;28;20587;-80
2022/03/29 02:08:40;;;;;;;24.85;12.32;;;;;;;;;;5030823;28;20026;-82
2022/03/29 02:11:06;;;;;;;29.02;12.32;;;;;;;;;;5032357;28;20017;-81
2022/03/29 02:13:32;;;;;;;21.35;11.52;;;;;;;;;;5032086;28;20457;-80
2022/03/29 02:15:57;;;;;;;22.17;12.57;;;;;;;;;;5032219;28;20104;-80
2022/03/29 02:18:22;;;;;;;23.35;12.25;;;;;;;;;;5032141;28;20543;-81
2022/03/29 02:20:47;;;;;;;23.33;12.27;;;;;;;;;;5032061;28;20104;-82
2022/03/29 02:23:15;;;;;;;23.55;12.90;;;;;;;;;;5031971;28;20025;-81
2022/03/29 02:25:41;;;;;;;25.00;14.00;;;;;;;;;;5030956;28;20654;-81
2022/03/29 02:28:06;;;;;;;28.17;14.63;;;;;;;;;;5030741;28;20037;-80
2022/03/29 02:30:32;;;;;;;28.67;14.25;;;;;;;;;;5030512;28;20017;-79
2022/03/29 02:32:58;;;;;;;25.58;14.85;;;;;;;;;;5031813;28;20108;-79
2022/03/29 02:35:23;;;;;;;26.00;14.85;;;;;;;;;;5032202;28;20496;-81
2022/03/29 02:37:48;;;;;;;29.08;16.08;;;;;;;;;;5031144;28;20021;-81
2022/03/29 02:40:13;;;;;;;28.77;15.73;;;;;;;;;;5033072;28;20053;-83
2022/03/29 02:42:43;;;;;;;28.05;15.55;;;;;;;;;;5032549;28;20466;-84
2022/03/29 02:45:11;;;;;;;35.05;18.02;;;;;;;;;;5032878;28;20028;-81
2022/03/29 02:47:37;;;;;;;37.53;19.05;;;;;;;;;;5041155;28;20025;-82
2022/03/29 02:50:02;;;;;;;29.85;16.45;;;;;;;;;;5040383;28;20350;-82
2022/03/29 02:52:27;;;;;;;32.15;17.45;;;;;;;;;;5038020;28;20017;-80
2022/03/29 02:54:53;;;;;;;31.27;17.75;;;;;;;;;;5032282;28;20079;-82
2022/03/29 02:57:18;;;;;;;31.98;17.75;;;;;;;;;;5032728;28;20021;-80
2022/03/29 02:59:45;;;;;;;30.60;17.80;;;;;;;;;;5032238;28;20079;-80
2022/03/29 03:02:11;;;;;;;34.38;17.30;;;;;;;;;;5031880;28;20025;-81
2022/03/29 03:04:36;;;;;;;31.73;18.92;;;;;;;;;;5032210;28;20037;-80
2022/03/29 03:07:02;;;;;;;30.90;17.88;;;;;;;;;;5031601;28;20103;-80
2022/03/29 03:09:27;;;;;;;29.20;17.17;;;;;;;;;;5030388;28;20370;-81
2022/03/29 03:11:55;;;;;;;29.83;17.38;;;;;;;;;;5032525;28;20437;-80
2022/03/29 03:14:20;;;;;;;29.90;17.80;;;;;;;;;;5031471;28;20033;-81
2022/03/29 03:16:45;;;;;;;33.55;17.90;;;;;;;;;;5032420;28;20658;-82
2022/03/29 03:19:11;;;;;;;29.13;16.85;;;;;;;;;;5035456;28;20112;-80
2022/03/29 03:21:36;;;;;;;28.13;16.58;;;;;;;;;;5041541;28;20021;-81
2022/03/29 03:24:01;;;;;;;32.03;17.50;;;;;;;;;;5044098;28;20021;-79
2022/03/29 03:26:26;;;;;;;31.83;17.63;;;;;;;;;;5043742;28;20022;-80
2022/03/29 03:28:52;;;;;;;31.00;17.75;;;;;;;;;;5043319;28;20045;-79
2022/03/29 03:31:17;;;;;;;28.75;16.88;;;;;;;;;;5041309;28;20018;-79
2022/03/29 03:33:42;;;;;;;30.70;17.17;;;;;;;;;;5041262;28;20013;-80
2022/03/29 03:36:07;;;;;;;29.33;17.52;;;;;;;;;;5045937;28;20156;-79
2022/03/29 03:38:36;;;;;;;29.30;17.27;;;;;;;;;;5049538;28;20021;-80
2022/03/29 03:41:01;;;;;;;28.38;15.13;;;;;;;;;;5039470;28;20051;-80
2022/03/29 03:43:26;;;;;;;26.05;14.95;;;;;;;;;;5035469;28;20481;-80
2022/03/29 03:45:52;;;;;;;25.88;15.23;;;;;;;;;;5035645;28;20031;-82
2022/03/29 03:48:17;;;;;;;24.38;15.52;;;;;;;;;;5035096;28;20112;-81
2022/03/29 03:50:42;;;;;;;27.50;15.07;;;;;;;;;;5033767;28;20267;-79
2022/03/29 03:53:07;;;;;;;23.88;14.25;;;;;;;;;;5033597;28;20067;-80
2022/03/29 03:55:33;;;;;;;24.77;15.25;;;;;;;;;;5034879;28;20388;-79
2022/03/29 03:57:58;;;;;;;26.00;14.80;;;;;;;;;;5034810;28;20021;-80
2022/03/29 04:00:24;;;;;;;25.13;15.60;;;;;;;;;;5034840;28;20036;-82
2022/03/29 04:02:50;;;;;;;25.98;15.77;;;;;;;;;;5034606;28;20093;-80
2022/03/29 04:05:15;;;;;;;24.30;15.55;;;;;;;;;;5034727;28;20480;-79
2022/03/29 04:07:41;;;;;;;31.20;17.08;;;;;;;;;;5034935;28;20028;-80
2022/03/29 04:10:07;;;;;;;28.77;16.15;;;;;;;;;;5035880;28;20057;-81
2022/03/29 04:12:32;;;;;;;28.52;17.20;;;;;;;;;;5035786;28;20120;-81
2022/03/29 04:14:57;;;;;;;23.70;14.27;;;;;;;;;;5036567;28;20485;-81
2022/03/29 04:17:25;;;;;;;28.40;14.15;;;;;;;;;;5036466;28;20029;-79
2022/03/29 04:19:51;;;;;;;24.88;13.18;;;;;;;;;;5035020;28;20033;-79
2022/03/29 04:22:18;;;;;;;21.77;12.75;;;;;;;;;;5036350;28;20038;-80
2022/03/29 04:24:44;;;;;;;23.40;13.32;;;;;;;;;;5036025;28;20029;-80
2022/03/29 04:27:09;;;;;;;17.95;11.77;;;;;;;;;;5033660;28;20024;-79
2022/03/29 04:29:34;;;;;;;22.90;13.00;;;;;;;;;;5035215;28;20112;-77
2022/03/29 04:31:59;;;;;;;22.52;13.68;;;;;;;;;;5034528;28;20013;-81
2022/03/29 04:34:25;;;;;;;23.58;13.30;;;;;;;;;;5035417;28;20071;-79
2022/03/29 04:36:52;;;;;;;20.42;11.88;;;;;;;;;;5034894;28;20270;-81
2022/03/29 04:39:20;;;;;;;23.20;12.88;;;;;;;;;;5035160;28;20053;-81
2022/03/29 04:41:45;;;;;;;19.52;12.98;;;;;;;;;;5035580;28;20070;-80
2022/03/29 04:44:11;;;;;;;23.65;13.10;;;;;;;;;;5035719;28;20022;-80
2022/03/29 04:46:36;;;;;;;20.73;12.65;;;;;;;;;;5036171;28;20024;-80
2022/03/29 04:49:01;;;;;;;22.58;13.07;;;;;;;;;;5035287;28;20095;-80
2022/03/29 04:51:26;;;;;;;24.55;13.45;;;;;;;;;;5036306;28;20419;-80
2022/03/29 04:53:54;;;;;;;20.77;12.85;;;;;;;;;;5035249;28;20018;-81
2022/03/29 04:56:20;;;;;;;25.97;13.20;;;;;;;;;;5034512;28;20028;-82
2022/03/29 04:58:45;;;;;;;26.08;13.18;;;;;;;;;;5034813;28;20266;-81
2022/03/29 05:01:10;;;;;;;27.02;14.73;;;;;;;;;;5036343;28;20450;-82
2022/03/29 05:03:35;;;;;;;28.88;14.68;;;;;;;;;;5035733;28;20025;-80
2022/03/29 05:06:01;;;;;;;23.90;13.77;;;;;;;;;;5036717;28;20120;-81
2022/03/29 05:08:26;;;;;;;26.17;14.80;;;;;;;;;;5036175;28;20028;-81
2022/03/29 05:10:51;;;;;;;26.25;13.70;;;;;;;;;;5035900;28;20017;-82
2022/03/29 05:13:17;;;;;;;23.55;14.52;;;;;;;;;;5035975;28;20052;-83
2022/03/29 05:15:42;;;;;;;24.83;14.52;;;;;;;;;;5035218;28;20022;-82
2022/03/29 05:18:08;;;;;;;36.22;15.82;;;;;;;;;;5034993;28;20024;-80
2022/03/29 05:20:33;;;;;;;25.25;14.52;;;;;;;;;;5036491;28;20021;-82
2022/03/29 05:23:00;;;;;;;22.52;13.85;;;;;;;;;;5035225;28;20108;-79
2022/03/29 05:25:26;;;;;;;21.85;13.13;;;;;;;;;;5035826;28;20102;-80
2022/03/29 05:27:51;;;;;;;24.67;13.95;;;;;;;;;;5035223;28;20468;-82
2022/03/29 05:30:17;;;;;;;25.25;14.52;;;;;;;;;;5034432;28;20037;-81
2022/03/29 05:32:43;;;;;;;26.27;14.02;;;;;;;;;;5035759;28;20021;-81
2022/03/29 05:35:09;;;;;;;23.05;14.13;;;;;;;;;;5035031;28;20084;-82
2022/03/29 05:37:34;;;;;;;27.13;14.73;;;;;;;;;;5035666;28;20026;-81
2022/03/29 05:40:00;;;;;;;23.30;13.75;;;;;;;;;;5035410;28;20113;-79
2022/03/29 05:42:25;;;;;;;28.88;14.73;;;;;;;;;;5033757;28;20030;-82
2022/03/29 05:44:50;;;;;;;26.08;14.65;;;;;;;;;;5035502;28;20025;-82
2022/03/29 05:50:03;;;;;;;26.50;16.42;;;;;;;;;;5034577;28;20029;-79
2022/03/29 05:52:35;;;;;;;28.38;15.98;;;;;;;;;;5034577;28;20021;-81
2022/03/29 05:55:00;;;;;;;27.73;15.38;;;;;;;;;;5032987;28;20018;-79
2022/03/29 05:57:25;;;;;;;32.58;16.25;;;;;;;;;;5033970;28;20037;-79
2022/03/29 05:59:51;;;;;;;31.77;16.77;;;;;;;;;;5033242;28;20035;-79
2022/03/29 06:02:17;;;;;;;29.85;16.25;;;;;;;;;;5032462;28;20022;-79
2022/03/29 06:04:42;;;;;;;32.70;16.75;;;;;;;;;;5034107;28;20381;-79
2022/03/29 06:07:07;;;;;;;29.42;17.38;;;;;;;;;;5034017;28;20048;-79
2022/03/29 06:09:33;;;;;;;32.97;18.50;;;;;;;;;;5033682;28;20022;-81
2022/03/29 06:11:58;;;;;;;33.72;16.40;;;;;;;;;;5032951;28;20397;-79
2022/03/29 06:14:24;;;;;;;27.13;16.45;;;;;;;;;;5033785;28;20013;-79
2022/03/29 06:16:49;;;;;;;32.20;18.00;;;;;;;;;;5034165;28;20025;-81
2022/03/29 06:19:14;;;;;;;29.63;17.63;;;;;;;;;;5034280;28;20025;-79
2022/03/29 06:21:40;;;;;;;28.13;17.00;;;;;;;;;;5033620;28;20483;-80
2022/03/29 06:24:06;;;;;;;29.27;16.85;;;;;;;;;;5034058;28;20025;-79
2022/03/29 06:26:31;;;;;;;32.85;19.90;;;;;;;;;;5032904;28;20121;-81
2022/03/29 06:28:58;;;;;;;31.60;18.10;;;;;;;;;;5033922;28;20366;-81
2022/03/29 06:31:23;;;;;;;28.02;16.35;;;;;;;;;;5034543;28;20018;-80
2022/03/29 06:33:49;;;;;;;30.42;16.23;;;;;;;;;;5035127;28;20017;-81
2022/03/29 06:36:14;;;;;;;31.80;18.02;;;;;;;;;;5034879;28;20017;-79
2022/03/29 06:38:40;;;;;;;28.75;17.15;;;;;;;;;;5035014;28;20028;-81
2022/03/29 06:41:05;;;;;;;32.67;18.80;;;;;;;;;;5034947;28;20102;-78
2022/03/29 06:43:30;;;;;;;28.08;17.33;;;;;;;;;;5046715;28;20033;-80
2022/03/29 06:45:55;;;;;;;30.42;16.63;;;;;;;;;;5051926;28;20044;-80
2022/03/29 06:48:21;;;;;;;30.23;16.88;;;;;;;;;;5050184;28;20021;-81
2022/03/29 06:50:46;;;;;;;27.20;16.10;;;;;;;;;;5053272;28;20018;-81
2022/03/29 06:53:12;;;;;;;27.33;16.35;;;;;;;;;;5049963;28;20435;-78
2022/03/29 06:55:37;;;;;;;34.00;16.45;;;;;;;;;;5039860;28;20155;-82
2022/03/29 06:58:03;;;;;;;33.00;15.43;;;;;;;;;;5037493;28;20013;-80
2022/03/29 07:00:28;;;;;;;31.27;15.73;;;;;;;;;;5038426;28;20470;-81
2022/03/29 07:02:53;;;;;;;31.48;15.13;;;;;;;;;;5038051;28;20032;-79
2022/03/29 07:05:19;;;;;;;28.92;14.73;;;;;;;;;;5037355;28;20037;-79
2022/03/29 07:07:44;;;;;;;23.95;14.55;;;;;;;;;;5035967;28;20017;-80
2022/03/29 07:12:58;;;;;;;29.75;15.07;;;;;;;;;;5038206;28;20033;-80
2022/03/29 07:15:24;;;;;;;29.10;15.57;;;;;;;;;;5036766;28;20087;-80
2022/03/29 07:17:50;;;;;;;30.15;16.52;;;;;;;;;;5036571;28;20021;-81
2022/03/29 07:20:21;;;;;;;26.42;15.65;;;;;;;;;;5034791;28;20477;-80
2022/03/29 07:22:47;;;;;;;23.88;14.23;;;;;;;;;;5035869;28;20033;-78
2022/03/29 07:25:13;;;;;;;26.10;13.73;;;;;;;;;;5047369;22;20389;-78
2022/03/29 07:27:39;;;;;;;25.50;14.35;;;;;;;;;;5035717;28;20026;-78
2022/03/29 07:30:05;;;;;;;29.73;14.70;;;;;;;;;;5035093;28;20136;-78
2022/03/29 07:32:30;;;;;;;24.55;13.98;;;;;;;;;;5035064;28;20022;-78
2022/03/29 07:34:56;;;;;;;25.35;14.43;;;;;;;;;;5034133;28;20025;-78
2022/03/29 07:37:21;;;;;;;28.02;14.75;;;;;;;;;;5035395;28;20067;-78
2022/03/29 07:39:47;;;;;;;28.58;14.93;;;;;;;;;;5035340;28;20080;-78
2022/03/29 07:42:12;;;;;;;21.75;13.00;;;;;;;;;;5035025;28;20033;-79
2022/03/29 07:44:37;;;;;;;26.52;15.38;;;;;;;;;;5034187;28;20028;-78
2022/03/29 07:47:03;;;;;;;29.08;15.65;;;;;;;;;;5035310;28;20440;-79
2022/03/29 07:49:29;;;;;;;30.10;16.50;;;;;;;;;;5035267;28;20066;-81
2022/03/29 07:51:54;;;;;;;29.33;15.27;;;;;;;;;;5033690;28;20044;-79
2022/03/29 07:54:20;;;;;;;28.17;16.42;;;;;;;;;;5034256;28;20480;-79
2022/03/29 07:56:45;;;;;;;32.90;17.40;;;;;;;;;;5035117;28;20010;-78
2022/03/29 07:59:10;;;;;;;30.30;16.92;;;;;;;;;;5035855;28;20408;-79
2022/03/29 08:01:36;;;;;;;28.45;15.00;;;;;;;;;;5035160;28;20381;-79
2022/03/29 08:04:01;;;;;;;33.10;17.52;;;;;;;;;;5035266;28;20022;-78
2022/03/29 08:06:27;;;;;;;32.03;17.38;;;;;;;;;;5034960;28;20500;-77
2022/03/29 08:08:53;;;;;;;30.38;15.63;;;;;;;;;;5034711;28;20017;-79
2022/03/29 08:11:19;;;;;;;36.15;17.13;;;;;;;;;;5034426;28;20024;-78
2022/03/29 08:13:45;;;;;;;33.28;17.25;;;;;;;;;;5033150;28;20112;-78
2022/03/29 08:16:10;;;;;;;30.02;17.25;;;;;;;;;;5034970;28;20025;-76
2022/03/29 08:18:38;;;;;;;32.13;18.90;;;;;;;;;;5034190;28;20014;-78
2022/03/29 08:21:47;;;;;;;28.58;16.52;;;;;;;;;;5032824;28;20053;-78
2022/03/29 08:23:48;;;;;;;30.58;17.27;;;;;;;;;;5033786;28;20404;-78
2022/03/29 08:26:13;;;;;;;30.27;16.73;;;;;;;;;;5034538;28;20075;-76
2022/03/29 08:28:39;;;;;;;31.15;16.63;;;;;;;;;;5034583;28;20096;-77
2022/03/29 08:31:04;;;;;;;26.92;16.58;;;;;;;;;;5034229;28;20125;-79
2022/03/29 08:33:30;;;;;;;31.60;16.67;;;;;;;;;;5034084;28;20404;-76
2022/03/29 08:35:57;;;;;;;31.95;15.85;;;;;;;;;;5034004;28;20009;-76
2022/03/29 08:38:22;;;;;;;28.73;15.52;;;;;;;;;;5033951;28;20041;-77
2022/03/29 08:40:47;;;;;;;27.95;15.38;;;;;;;;;;5032439;28;20056;-78
2022/03/29 08:43:14;;;;;;;30.27;15.38;;;;;;;;;;5033565;28;20014;-76
2022/03/29 08:45:40;;;;;;;24.92;15.27;;;;;;;;;;5032364;28;20021;-77
2022/03/29 08:48:05;;;;;;;27.17;15.40;;;;;;;;;;5033419;28;20095;-77
2022/03/29 08:50:36;;;;;;;28.42;16.02;;;;;;;;;;5032544;28;20052;-78
2022/03/29 08:53:02;;;;;;;27.77;15.27;;;;;;;;;;5032168;28;20056;-79
2022/03/29 08:55:27;;;;;;;31.67;15.75;;;;;;;;;;5032286;28;20022;-78
2022/03/29 08:57:55;;;;;;;30.35;16.25;;;;;;;;;;5033672;28;20487;-77
2022/03/29 09:00:20;;;;;;;26.00;15.30;;;;;;;;;;5033508;28;20073;-78
2022/03/29 09:02:46;;;;;;;25.95;14.45;;;;;;;;;;5033302;28;20028;-77
2022/03/29 09:05:15;;;;;;;30.33;14.75;;;;;;;;;;5031720;28;20021;-76
2022/03/29 09:07:46;;;;;;;26.42;15.02;;;;;;;;;;5032968;28;20048;-78
2022/03/29 09:10:12;;;;;;;32.40;15.68;;;;;;;;;;5032893;28;20014;-78
2022/03/29 09:12:38;;;;;;;28.88;15.30;;;;;;;;;;5033169;28;20018;-75
2022/03/29 09:15:04;;;;;;;24.95;14.13;;;;;;;;;;5032227;28;20022;-76
2022/03/29 09:17:31;;;;;;;28.52;16.20;;;;;;;;;;5031713;28;20017;-77
2022/03/29 09:19:56;;;;;;;29.45;16.17;;;;;;;;;;5033074;28;20028;-78
2022/03/29 09:22:34;;;;;;;28.65;15.73;;;;;;;;;;5032960;28;20017;-77
2022/03/29 09:25:00;;;;;;;25.70;15.88;;;;;;;;;;5033164;28;20091;-77
2022/03/29 09:27:25;;;;;;;29.05;14.95;;;;;;;;;;5031655;28;20033;-77
2022/03/29 09:30:05;;;;;;;29.17;15.18;;;;;;;;;;5033160;28;20056;-78
2022/03/29 09:32:30;;;;;;;26.00;14.63;;;;;;;;;;5033015;28;20132;-77
2022/03/29 09:35:12;;;;;;;28.40;15.93;;;;;;;;;;5033411;28;20025;-77
2022/03/29 09:37:43;;;;;;;29.83;15.80;;;;;;;;;;5032890;28;20022;-77
2022/03/29 09:40:09;;;;;;;29.10;14.40;;;;;;;;;;5031405;28;20465;-78
2022/03/29 09:42:35;;;;;;;26.20;13.65;;;;;;;;;;5032848;28;20022;-78
2022/03/29 09:45:00;;;;;;;22.30;13.52;;;;;;;;;;5032412;28;20033;-79
2022/03/29 09:47:27;;;;;;;29.95;15.43;;;;;;;;;;5031250;28;20017;-79
2022/03/29 09:49:56;;;;;;;27.02;13.80;;;;;;;;;;5032372;28;20044;-78
2022/03/29 09:52:23;;;;;;;30.70;15.02;;;;;;;;;;5032210;28;20040;-79
2022/03/29 09:55:04;;;;;;;28.30;14.75;;;;;;;;;;5032182;28;20370;-78
2022/03/29 09:57:33;;;;;;;26.75;15.73;;;;;;;;;;5032358;28;20019;-78
2022/03/29 09:59:58;;;;;;;27.90;15.10;;;;;;;;;;5032481;28;20085;-77
2022/03/29 10:02:31;;;;;;;28.95;15.52;;;;;;;;;;5032401;28;20022;-79
2022/03/29 10:04:57;;;;;;;27.00;15.25;;;;;;;;;;5031412;28;20026;-76
2022/03/29 10:07:22;;;;;;;31.42;16.48;;;;;;;;;;5032139;28;20021;-78
2022/03/29 10:09:47;;;;;;;29.92;15.40;;;;;;;;;;5032187;28;20029;-78
2022/03/29 10:12:13;;;;;;;27.98;15.50;;;;;;;;;;5032085;28;20477;-77
2022/03/29 10:14:41;;;;;;;26.90;15.18;;;;;;;;;;5030628;28;20099;-78
2022/03/29 10:17:07;;;;;;;22.80;13.98;;;;;;;;;;5030581;28;20032;-78
2022/03/29 10:19:33;;;;;;;27.13;15.27;;;;;;;;;;5031690;28;20506;-78
2022/03/29 10:21:58;;;;;;;28.65;15.73;;;;;;;;;;5031507;28;20055;-78
2022/03/29 10:24:24;;;;;;;29.75;16.25;;;;;;;;;;5030058;28;20056;-80
2022/03/29 10:26:51;;;;;;;31.88;16.98;;;;;;;;;;5032059;28;20037;-78
2022/03/29 10:29:16;;;;;;;29.98;15.90;;;;;;;;;;5031998;28;20117;-78
2022/03/29 10:32:01;;;;;;;26.48;14.55;;;;;;;;;;5031713;28;20029;-78
2022/03/29 10:34:28;;;;;;;25.60;15.55;;;;;;;;;;5029918;28;20064;-77
2022/03/29 10:37:04;;;;;;;28.50;15.80;;;;;;;;;;5031821;28;20017;-77
2022/03/29 10:39:41;;;;;;;31.52;16.17;;;;;;;;;;5031782;28;20029;-77
2022/03/29 10:42:24;;;;;;;29.77;16.77;;;;;;;;;;5031433;28;20017;-77
2022/03/29 10:45:09;;;;;;;29.10;15.32;;;;;;;;;;5031932;28;20028;-78
2022/03/29 10:47:34;;;;;;;30.92;16.30;;;;;;;;;;5030141;28;20029;-77
2022/03/29 10:50:00;;;;;;;27.00;16.00;;;;;;;;;;5032182;28;20029;-77
2022/03/29 10:52:27;;;;;;;29.98;16.05;;;;;;;;;;5032085;28;20022;-78
2022/03/29 10:55:12;;;;;;;33.45;16.52;;;;;;;;;;5032461;28;20549;-77
2022/03/29 10:57:40;;;;;;;34.08;16.45;;;;;;;;;;5034588;28;20028;-78
2022/03/29 11:00:10;;;;;;;36.42;18.58;;;;;;;;;;5030334;28;20028;-77
2022/03/29 11:02:36;;;;;;;37.30;18.15;;;;;;;;;;5031282;28;20021;-78
2022/03/29 11:05:05;;;;;;;31.10;16.40;;;;;;;;;;5030301;28;20456;-78
2022/03/29 11:07:34;;;;;;;34.22;18.88;;;;;;;;;;5031599;28;20018;-78
2022/03/29 11:09:59;;;;;;;;;;;;;;;;;;5032716;28;20021;-77
2022/03/29 11:12:38;;;;;;;36.90;17.88;;;;;;;;;;5031988;28;19916;-77
2022/03/29 11:15:03;;;;;;;;;;;;;;;;;;5033325;28;20067;-77
2022/03/29 11:17:28;;;;;;;38.70;19.33;;;;;;;;;;5033423;28;19905;-77
2022/03/29 11:19:56;;;;;;;41.85;21.17;;;;;;;;;;5032553;28;20381;-77
2022/03/29 11:22:28;;;;;;;42.67;24.08;;;;;;;;;;5031122;28;20487;-78
2022/03/29 11:24:54;;;;;;;49.22;24.08;;;;;;;;;;5032855;28;20025;-77
2022/03/29 11:27:26;;;;;;;44.15;24.83;;;;;;;;;;5032576;28;20396;-77
2022/03/29 11:29:52;;;;;;;50.45;27.13;;;;;;;;;;5031327;28;20013;-78
2022/03/29 11:32:17;;;;;;;50.80;27.65;;;;;;;;;;5029795;28;20017;-78
2022/03/29 11:34:45;;;;;;;45.33;27.20;;;;;;;;;;5031376;28;20417;-79
2022/03/29 11:37:30;;;;;;;53.25;27.58;;;;;;;;;;5032792;28;20020;-78
2022/03/29 11:39:57;;;;;;;43.10;24.30;;;;;;;;;;5037002;28;20025;-78
2022/03/29 11:42:22;;;;;;;45.53;26.60;;;;;;;;;;5033428;28;20017;-78
2022/03/29 11:44:48;;;;;;;51.50;30.02;;;;;;;;;;5033698;28;20025;-79
2022/03/29 11:47:13;;;;;;;54.13;28.83;;;;;;;;;;5033221;28;20030;-78
2022/03/29 11:49:40;;;;;;;56.72;28.13;;;;;;;;;;5034657;28;20082;-77
2022/03/29 11:52:12;;;;;;;53.33;27.70;;;;;;;;;;5035069;28;20022;-78
2022/03/29 11:54:38;;;;;;;53.55;30.80;;;;;;;;;;5034208;28;20509;-78
2022/03/29 11:57:15;;;;;;;51.88;30.10;;;;;;;;;;5047378;28;20030;-79
2022/03/29 11:59:42;;;;;;;47.30;26.55;;;;;;;;;;5048472;28;20100;-79
2022/03/29 12:02:08;;;;;;;48.63;28.45;;;;;;;;;;5050114;28;20108;-78
2022/03/29 12:04:33;;;;;;;52.83;30.10;;;;;;;;;;5050980;28;20017;-80
2022/03/29 12:06:58;;;;;;;49.97;27.85;;;;;;;;;;5035350;28;20033;-78
2022/03/29 12:09:24;;;;;;;48.17;27.50;;;;;;;;;;5034766;28;20022;-78
2022/03/29 12:11:53;;;;;;;47.30;27.15;;;;;;;;;;5034337;28;20017;-78
2022/03/29 12:14:20;;;;;;;51.90;28.30;;;;;;;;;;5034119;28;20075;-76
2022/03/29 12:16:46;;;;;;;50.35;25.52;;;;;;;;;;5034161;28;20020;-77
2022/03/29 12:19:13;;;;;;;45.58;27.88;;;;;;;;;;5033933;28;20539;-78
2022/03/29 12:21:39;;;;;;;41.03;24.77;;;;;;;;;;5033801;28;20057;-77
2022/03/29 12:24:04;;;;;;;39.85;23.63;;;;;;;;;;5033597;28;20071;-77
2022/03/29 12:26:30;;;;;;;38.72;21.52;;;;;;;;;;5034059;28;20029;-77
2022/03/29 12:28:56;;;;;;;34.40;21.13;;;;;;;;;;5032246;28;20025;-77
2022/03/29 12:31:24;;;;;;;32.92;19.25;;;;;;;;;;5033909;28;20014;-79
2022/03/29 12:33:50;;;;;;;44.90;24.17;;;;;;;;;;5033341;28;20041;-78
2022/03/29 12:36:16;;;;;;;44.17;24.80;;;;;;;;;;5033596;28;20021;-76
2022/03/29 12:38:45;;;;;;;39.40;22.63;;;;;;;;;;5033494;28;20108;-76
2022/03/29 12:41:12;;;;;;;36.28;21.13;;;;;;;;;;5033340;28;20021;-78
2022/03/29 12:43:38;;;;;;;41.85;22.77;;;;;;;;;;5032783;28;20072;-79
2022/03/29 12:46:09;;;;;;;37.20;20.25;;;;;;;;;;5033205;28;20025;-76
2022/03/29 12:48:35;;;;;;;37.30;19.02;;;;;;;;;;5030535;28;20070;-76
2022/03/29 12:51:04;;;;;;;33.95;18.35;;;;;;;;;;5033008;28;20048;-76
2022/03/29 12:53:30;;;;;;;30.60;18.10;;;;;;;;;;5031470;28;20105;-77
2022/03/29 12:55:56;;;;;;;35.05;17.42;;;;;;;;;;5033188;28;20088;-78
2022/03/29 12:58:32;;;;;;;27.33;16.95;;;;;;;;;;5033234;28;20020;-76
2022/03/29 13:00:57;;;;;;;31.70;16.27;;;;;;;;;;5033247;28;20129;-78
2022/03/29 13:03:23;;;;;;;29.55;17.15;;;;;;;;;;5032703;28;20041;-78
2022/03/29 13:05:48;;;;;;;33.22;17.45;;;;;;;;;;5032794;28;20045;-77
2022/03/29 13:08:21;;;;;;;29.65;18.17;;;;;;;;;;5033063;28;20477;-76
2022/03/29 13:10:46;;;;;;;32.63;18.00;;;;;;;;;;5032746;28;20044;-76
2022/03/29 13:13:18;;;;;;;32.08;17.95;;;;;;;;;;5032377;28;20477;-77
2022/03/29 13:16:06;;;;;;;28.42;17.70;;;;;;;;;;5032614;28;20028;-77
2022/03/29 13:18:34;;;;;;;34.80;16.52;;;;;;;;;;5032542;28;20018;-77
2022/03/29 13:21:19;;;;;;;27.77;16.17;;;;;;;;;;5031142;28;20022;-77
2022/03/29 13:26:23;;;;;;;29.70;17.08;;;;;;;;;;5011293;28;20046;-82
2022/03/29 13:28:49;;;;;;;32.47;15.43;;;;;;;;;;5011584;28;20025;-82
2022/03/29 13:31:14;;;;;;;29.52;17.40;;;;;;;;;;5012648;28;20478;-83
2022/03/29 13:33:44;;;;;;;24.02;15.35;;;;;;;;;;5013582;28;20056;-84
2022/03/29 13:36:11;;;;;;;27.83;15.40;;;;;;;;;;4992048;28;20073;-84
2022/03/29 13:38:37;;;;;;;27.60;17.77;;;;;;;;;;4993344;28;20024;-83
2022/03/29 13:41:03;;;;;;;28.00;17.02;;;;;;;;;;4991914;28;20094;-84
2022/03/29 13:43:29;;;;;;;32.60;17.27;;;;;;;;;;4991824;28;20022;-83
2022/03/29 13:45:54;;;;;;;26.20;17.33;;;;;;;;;;4994060;28;20080;-83
2022/03/29 13:48:19;;;;;;;27.53;18.03;;;;;;;;;;4993102;28;20466;-82
2022/03/29 13:50:44;;;;;;;36.03;17.10;;;;;;;;;;4993109;28;20510;-84
2022/03/29 13:53:10;;;;;;;36.83;17.13;;;;;;;;;;4991648;28;20034;-83
2022/03/29 13:55:36;;;;;;;27.65;15.77;;;;;;;;;;4991848;28;20084;-83
2022/03/29 13:58:04;;;;;;;39.33;17.17;;;;;;;;;;4991817;28;20490;-83
2022/03/29 14:00:29;;;;;;;31.40;16.80;;;;;;;;;;4993251;28;20046;-83
2022/03/29 14:02:55;;;;;;;29.02;16.63;;;;;;;;;;4991396;28;20529;-83
2022/03/29 14:05:20;;;;;;;23.63;14.00;;;;;;;;;;4991674;28;20022;-84
2022/03/29 14:07:46;;;;;;;29.15;17.58;;;;;;;;;;4992167;28;20023;-82
2022/03/29 14:10:14;;;;;;;25.90;16.00;;;;;;;;;;4992616;28;20046;-83
2022/03/29 14:12:39;;;;;;;23.88;15.73;;;;;;;;;;4992697;28;20014;-83
2022/03/29 14:15:05;;;;;;;27.42;15.68;;;;;;;;;;4992481;28;20077;-82
2022/03/29 14:17:30;;;;;;;34.80;18.13;;;;;;;;;;4991191;28;20361;-80
2022/03/29 14:19:55;;;;;;;30.90;17.77;;;;;;;;;;4991088;28;20022;-81
2022/03/29 14:22:20;;;;;;;27.25;16.60;;;;;;;;;;4992243;28;20658;-82
2022/03/29 14:24:45;;;;;;;27.40;16.85;;;;;;;;;;4992154;28;20033;-82
2022/03/29 14:27:11;;;;;;;26.37;15.93;;;;;;;;;;4991158;28;20404;-82